createdAt,value
2023-04-21T00:01:47.779Z,23.77
2023-04-21T00:04:16.603Z,23.70
2023-04-21T00:06:47.416Z,26.80
2023-04-21T00:09:15.337Z,21.40
2023-04-21T00:11:43.268Z,24.17
2023-04-21T00:14:11.336Z,23.37
2023-04-21T00:16:39.473Z,23.07
2023-04-21T00:19:08.636Z,25.57
2023-04-21T00:21:39.634Z,26.53
2023-04-21T00:24:10.916Z,25.90
2023-04-21T00:26:39.008Z,21.67
2023-04-21T00:29:07.016Z,31.13
2023-04-21T00:31:35.296Z,25.90
2023-04-21T00:34:03.575Z,24.87
2023-04-21T00:36:33.748Z,24.73
2023-04-21T00:39:01.858Z,24.57
2023-04-21T00:41:31.185Z,28.33
2023-04-21T00:44:02.202Z,24.97
2023-04-21T00:46:31.712Z,26.97
2023-04-21T00:49:00.831Z,25.90
2023-04-21T00:51:30.287Z,26.87
2023-04-21T00:53:58.419Z,29.63
2023-04-21T00:56:27.491Z,23.83
2023-04-21T00:58:59.059Z,24.63
2023-04-21T01:01:30.281Z,24.43
2023-04-21T01:04:00.318Z,24.43
2023-04-21T01:06:32.373Z,21.73
2023-04-21T01:09:00.482Z,23.40
2023-04-21T01:11:28.552Z,26.27
2023-04-21T01:13:58.165Z,27.43
2023-04-21T01:16:27.064Z,25.30
2023-04-21T01:18:55.464Z,24.90
2023-04-21T01:21:23.807Z,28.97
2023-04-21T01:23:53.755Z,27.47
2023-04-21T01:26:22.777Z,21.67
2023-04-21T01:28:51.535Z,24.67
2023-04-21T01:31:22.711Z,26.50
2023-04-21T01:33:51.480Z,24.00
2023-04-21T01:36:20.105Z,30.97
2023-04-21T01:38:49.034Z,29.70
2023-04-21T01:41:20.300Z,28.93
2023-04-21T01:43:48.534Z,31.20
2023-04-21T01:46:16.754Z,27.30
2023-04-21T01:48:45.263Z,30.97
2023-04-21T01:51:13.635Z,27.63
2023-04-21T01:53:41.888Z,28.50
2023-04-21T01:56:10.194Z,27.00
2023-04-21T01:58:39.971Z,29.57
2023-04-21T02:01:07.986Z,27.23
2023-04-21T02:03:37.060Z,29.27
2023-04-21T02:06:06.394Z,25.93
2023-04-21T02:08:34.852Z,24.80
2023-04-21T02:11:03.247Z,27.00
2023-04-21T02:13:31.472Z,26.07
2023-04-21T02:16:12.687Z,31.17
2023-04-21T02:18:41.807Z,29.03
2023-04-21T02:21:09.709Z,27.03
2023-04-21T02:23:37.739Z,27.47
2023-04-21T02:26:05.926Z,24.60
2023-04-21T02:28:34.028Z,28.67
2023-04-21T02:31:03.495Z,26.67
2023-04-21T02:33:32.287Z,30.37
2023-04-21T02:36:03.115Z,24.37
2023-04-21T02:38:31.625Z,23.80
2023-04-21T02:40:59.737Z,23.30
2023-04-21T02:43:28.030Z,23.13
2023-04-21T02:45:55.998Z,19.17
2023-04-21T02:48:25.503Z,20.70
2023-04-21T02:50:54.272Z,19.43
2023-04-21T02:53:22.461Z,18.97
2023-04-21T02:55:50.385Z,19.73
2023-04-21T02:58:18.650Z,22.90
2023-04-21T03:00:46.843Z,20.30
2023-04-21T03:03:17.132Z,19.83
2023-04-21T03:05:46.698Z,21.83
2023-04-21T03:08:15.206Z,22.40
2023-04-21T03:10:43.381Z,21.90
2023-04-21T03:13:11.846Z,21.23
2023-04-21T03:15:39.956Z,18.10
2023-04-21T03:18:08.185Z,15.63
2023-04-21T03:20:36.457Z,18.50
2023-04-21T03:23:05.926Z,19.67
2023-04-21T03:25:33.950Z,18.80
2023-04-21T03:28:02.203Z,19.73
2023-04-21T03:30:30.248Z,17.17
2023-04-21T03:32:58.901Z,27.70
2023-04-21T03:35:28.582Z,17.63
2023-04-21T03:37:57.240Z,19.43
2023-04-21T03:40:26.884Z,21.67
2023-04-21T03:42:55.150Z,22.47
2023-04-21T03:45:24.260Z,19.63
2023-04-21T03:47:57.186Z,18.80
2023-04-21T03:50:25.608Z,20.20
2023-04-21T03:52:54.895Z,20.53
2023-04-21T03:55:23.232Z,17.50
2023-04-21T03:57:52.960Z,18.53
2023-04-21T04:00:22.379Z,20.40
2023-04-21T04:02:51.772Z,22.27
2023-04-21T04:05:19.898Z,21.87
2023-04-21T04:07:49.119Z,23.27
2023-04-21T04:10:17.470Z,23.10
2023-04-21T04:12:45.573Z,24.97
2023-04-21T04:15:15.174Z,24.33
2023-04-21T04:17:44.530Z,22.37
2023-04-21T04:20:12.884Z,20.17
2023-04-21T04:22:40.998Z,20.77
2023-04-21T04:25:09.754Z,20.57
2023-04-21T04:27:39.079Z,25.43
2023-04-21T04:30:08.729Z,18.77
2023-04-21T04:32:39.966Z,16.70
2023-04-21T04:35:08.992Z,14.13
2023-04-21T04:37:38.734Z,15.20
2023-04-21T04:40:10.310Z,17.00
2023-04-21T04:42:39.749Z,18.53
2023-04-21T04:45:09.418Z,17.40
2023-04-21T04:47:39.364Z,16.73
2023-04-21T04:50:08.733Z,15.03
2023-04-21T04:52:36.926Z,15.33
2023-04-21T04:55:06.175Z,13.67
2023-04-21T04:57:34.517Z,16.87
2023-04-21T05:00:02.531Z,14.27
2023-04-21T05:02:30.894Z,13.17
2023-04-21T05:05:00.700Z,17.93
2023-04-21T05:07:28.869Z,18.97
2023-04-21T05:09:57.413Z,15.30
2023-04-21T05:12:25.902Z,14.00
2023-04-21T05:14:54.400Z,17.70
2023-04-21T05:17:22.499Z,15.27
2023-04-21T05:19:50.502Z,15.67
2023-04-21T05:22:19.806Z,26.00
2023-04-21T05:24:50.126Z,69.47
2023-04-21T05:27:18.124Z,26.03
2023-04-21T05:29:46.102Z,28.63
2023-04-21T05:32:14.557Z,19.30
2023-04-21T05:34:42.660Z,15.63
2023-04-21T05:37:12.407Z,16.00
2023-04-21T05:39:42.435Z,20.27
2023-04-21T05:42:11.361Z,18.60
2023-04-21T05:44:39.379Z,17.00
2023-04-21T05:47:08.020Z,16.67
2023-04-21T05:49:36.394Z,24.67
2023-04-21T05:52:06.615Z,20.07
2023-04-21T05:54:34.589Z,17.63
2023-04-21T05:57:04.237Z,14.03
2023-04-21T05:59:32.131Z,20.93
2023-04-21T06:02:00.183Z,21.00
2023-04-21T06:04:28.423Z,12.93
2023-04-21T06:06:56.764Z,8.37
2023-04-21T06:09:26.997Z,9.00
2023-04-21T06:11:55.351Z,8.27
2023-04-21T06:14:25.014Z,7.20
2023-04-21T06:16:53.118Z,7.30
2023-04-21T06:19:22.054Z,7.77
2023-04-21T06:21:50.072Z,10.00
2023-04-21T06:24:25.070Z,14.07
2023-04-21T06:26:53.767Z,9.20
2023-04-21T06:29:22.089Z,7.87
2023-04-21T06:31:51.694Z,8.63
2023-04-21T06:34:21.163Z,15.13
2023-04-21T06:36:49.326Z,9.23
2023-04-21T06:39:17.565Z,7.30
2023-04-21T06:41:45.821Z,7.23
2023-04-21T06:44:14.401Z,7.30
2023-04-21T06:46:42.652Z,7.53
2023-04-21T06:49:13.220Z,9.90
2023-04-21T06:51:41.183Z,8.33
2023-04-21T06:54:09.224Z,8.07
2023-04-21T06:56:37.572Z,8.90
2023-04-21T06:59:05.457Z,8.30
2023-04-21T07:01:33.621Z,7.53
2023-04-21T07:04:01.827Z,6.20
2023-04-21T07:06:32.077Z,8.60
2023-04-21T07:09:00.206Z,8.57
2023-04-21T07:11:30.984Z,9.13
2023-04-21T07:14:02.285Z,7.90
2023-04-21T07:16:30.486Z,7.67
2023-04-21T07:18:59.223Z,10.43
2023-04-21T07:21:27.501Z,10.13
2023-04-21T07:23:56.892Z,7.13
2023-04-21T07:26:25.230Z,12.33
2023-04-21T07:28:53.686Z,11.50
2023-04-21T07:31:21.887Z,8.47
2023-04-21T07:33:49.967Z,6.17
2023-04-21T07:36:18.536Z,6.53
2023-04-21T07:38:46.866Z,8.73
2023-04-21T07:41:16.328Z,7.77
2023-04-21T07:43:44.280Z,6.27
2023-04-21T07:46:13.554Z,7.27
2023-04-21T07:48:42.344Z,7.20
2023-04-21T07:51:10.284Z,9.10
2023-04-21T07:53:39.746Z,6.37
2023-04-21T07:56:08.838Z,7.20
2023-04-21T07:58:38.516Z,6.37
2023-04-21T08:01:09.904Z,5.80
2023-04-21T08:03:39.769Z,6.27
2023-04-21T08:06:09.204Z,8.87
2023-04-21T08:08:37.325Z,6.87
2023-04-21T08:11:05.353Z,6.00
2023-04-21T08:13:41.486Z,9.03
2023-04-21T08:16:11.044Z,7.00
2023-04-21T08:18:39.636Z,5.63
2023-04-21T08:21:07.997Z,7.37
2023-04-21T08:23:36.241Z,6.87
2023-04-21T08:26:05.245Z,5.90
2023-04-21T08:28:33.408Z,10.80
2023-04-21T08:31:05.053Z,7.90
2023-04-21T08:33:35.518Z,7.37
2023-04-21T08:36:12.331Z,8.20
2023-04-21T08:38:46.467Z,6.63
2023-04-21T08:41:14.929Z,10.83
2023-04-21T08:43:43.559Z,8.20
2023-04-21T08:46:11.601Z,7.67
2023-04-21T08:48:41.468Z,5.70
2023-04-21T08:51:11.291Z,5.73
2023-04-21T08:53:42.274Z,6.53
2023-04-21T08:56:11.901Z,9.43
2023-04-21T08:58:41.788Z,6.57
2023-04-21T09:01:10.037Z,6.97
2023-04-21T09:03:38.373Z,7.13
2023-04-21T09:06:10.325Z,9.57
2023-04-21T09:08:40.809Z,5.80
2023-04-21T09:11:08.878Z,10.83
2023-04-21T09:13:38.380Z,11.90
2023-04-21T09:16:16.485Z,11.20
2023-04-21T09:18:45.534Z,7.13
2023-04-21T09:21:18.366Z,6.17
2023-04-21T09:23:48.346Z,5.73
2023-04-21T09:26:17.216Z,5.30
2023-04-21T09:28:46.392Z,5.73
2023-04-21T09:31:29.117Z,6.83
2023-04-21T09:34:01.032Z,5.40
2023-04-21T09:36:32.302Z,4.87
2023-04-21T09:41:36.278Z,4.60
2023-04-21T09:44:05.244Z,5.17
2023-04-21T09:46:36.297Z,4.70
2023-04-21T09:49:05.807Z,3.83
2023-04-21T09:52:05.759Z,5.33
2023-04-21T09:54:31.922Z,4.73
2023-04-21T09:57:02.996Z,2.90
2023-04-21T09:59:34.359Z,7.70
2023-04-21T10:02:05.966Z,4.83
2023-04-21T10:04:36.428Z,4.37
2023-04-21T10:07:06.698Z,7.67
2023-04-21T10:09:41.333Z,4.30
2023-04-21T10:12:11.399Z,5.77
2023-04-21T10:14:39.613Z,4.50
2023-04-21T10:17:09.221Z,4.80
2023-04-21T10:19:40.215Z,10.53
2023-04-21T10:22:10.537Z,5.40
2023-04-21T10:24:41.013Z,5.67
2023-04-21T10:27:12.618Z,5.73
2023-04-21T10:29:55.605Z,4.93
2023-04-21T10:32:42.703Z,5.17
2023-04-21T10:35:12.208Z,6.40
2023-04-21T10:37:42.926Z,4.77
2023-04-21T10:40:44.123Z,4.17
2023-04-21T10:43:48.958Z,4.47
2023-04-21T10:46:34.087Z,6.43
2023-04-21T10:49:10.235Z,7.10
2023-04-21T10:52:07.017Z,8.63
2023-04-21T10:54:43.729Z,6.23
2023-04-21T10:57:13.710Z,9.40
2023-04-21T10:59:42.030Z,5.97
2023-04-21T11:02:15.360Z,4.53
2023-04-21T11:04:48.955Z,4.30
2023-04-21T11:07:18.909Z,5.53
2023-04-21T11:09:51.295Z,3.37
2023-04-21T11:12:20.307Z,4.90
2023-04-21T11:14:49.149Z,7.13
2023-04-21T11:17:19.241Z,4.17
2023-04-21T11:19:48.119Z,6.20
2023-04-21T11:22:18.016Z,4.20
2023-04-21T11:24:47.051Z,4.13
2023-04-21T11:27:16.428Z,4.37
2023-04-21T11:29:46.055Z,4.10
2023-04-21T11:32:16.599Z,6.33
2023-04-21T11:34:44.744Z,4.43
2023-04-21T11:37:18.128Z,4.77
2023-04-21T11:39:46.086Z,4.33
2023-04-21T11:42:23.653Z,5.37
2023-04-21T11:44:51.598Z,5.13
2023-04-21T11:47:22.677Z,6.87
2023-04-21T11:49:54.764Z,4.70
2023-04-21T11:52:27.018Z,5.37
2023-04-21T11:55:01.010Z,4.47
2023-04-21T11:57:32.591Z,5.43
2023-04-21T12:00:01.569Z,5.03
2023-04-21T12:02:31.929Z,3.40
2023-04-21T12:05:04.922Z,3.93
2023-04-21T12:07:34.051Z,4.97
2023-04-21T12:10:03.072Z,3.40
2023-04-21T12:12:33.461Z,3.77
2023-04-21T12:15:04.602Z,2.97
2023-04-21T12:17:39.118Z,1.93
2023-04-21T12:20:08.536Z,2.37
2023-04-21T12:22:36.732Z,2.30
2023-04-21T12:25:06.072Z,2.00
2023-04-21T12:27:35.813Z,2.40
2023-04-21T12:30:04.439Z,2.70
2023-04-21T12:32:32.712Z,2.77
2023-04-21T12:35:03.444Z,2.70
2023-04-21T12:37:32.027Z,3.13
2023-04-21T12:40:00.372Z,3.10
2023-04-21T12:42:28.375Z,3.67
2023-04-21T12:44:58.180Z,3.60
2023-04-21T12:47:26.467Z,5.07
2023-04-21T12:49:54.945Z,7.43
2023-04-21T12:52:22.933Z,5.40
2023-04-21T12:54:50.955Z,6.63
2023-04-21T12:57:19.028Z,5.07
2023-04-21T12:59:47.433Z,5.00
2023-04-21T13:02:17.167Z,5.40
2023-04-21T13:04:47.099Z,6.30
2023-04-21T13:07:16.285Z,6.70
2023-04-21T13:09:44.521Z,5.03
2023-04-21T13:12:12.785Z,5.00
2023-04-21T13:14:40.919Z,4.13
2023-04-21T13:17:08.985Z,6.60
2023-04-21T13:19:38.498Z,4.93
2023-04-21T13:22:06.533Z,6.90
2023-04-21T13:24:35.034Z,3.83
2023-04-21T13:27:03.187Z,7.63
2023-04-21T13:29:34.620Z,6.33
2023-04-21T13:32:03.303Z,5.00
2023-04-21T13:34:32.361Z,4.60
2023-04-21T13:37:02.834Z,5.73
2023-04-21T13:39:31.139Z,4.87
2023-04-21T13:41:59.418Z,4.63
2023-04-21T13:44:27.632Z,7.50
2023-04-21T13:46:57.646Z,6.17
2023-04-21T13:49:25.742Z,6.03
2023-04-21T13:51:53.849Z,5.73
2023-04-21T13:54:23.181Z,5.23
2023-04-21T13:56:51.337Z,7.13
2023-04-21T13:59:21.318Z,5.37
2023-04-21T14:01:49.368Z,4.47
2023-04-21T14:04:17.570Z,5.40
2023-04-21T14:06:48.029Z,5.53
2023-04-21T14:09:16.324Z,6.60
2023-04-21T14:11:45.831Z,7.10
2023-04-21T14:14:16.938Z,4.70
2023-04-21T14:16:49.921Z,4.83
2023-04-21T14:19:18.148Z,4.97
2023-04-21T14:21:46.189Z,6.97
2023-04-21T14:24:14.670Z,5.53
2023-04-21T14:26:42.738Z,4.40
2023-04-21T14:29:12.370Z,5.77
2023-04-21T14:31:40.612Z,5.13
2023-04-21T14:34:08.627Z,6.10
2023-04-21T14:36:38.678Z,5.43
2023-04-21T14:39:06.675Z,6.67
2023-04-21T14:41:34.627Z,5.57
2023-04-21T14:44:05.190Z,7.77
2023-04-21T14:46:35.737Z,4.67
2023-04-21T14:49:06.121Z,8.47
2023-04-21T14:51:34.247Z,6.13
2023-04-21T14:54:03.856Z,5.57
2023-04-21T14:56:32.040Z,8.07
2023-04-21T14:59:00.191Z,5.17
2023-04-21T15:01:28.312Z,7.70
2023-04-21T15:04:00.186Z,5.50
2023-04-21T15:06:28.406Z,7.23
2023-04-21T15:08:56.561Z,7.27
2023-04-21T15:11:24.534Z,4.33
2023-04-21T15:13:52.725Z,6.37
2023-04-21T15:16:20.890Z,5.47
2023-04-21T15:18:49.172Z,5.07
2023-04-21T15:21:20.241Z,4.60
2023-04-21T15:23:48.301Z,4.10
2023-04-21T15:28:44.273Z,4.03
2023-04-21T15:31:14.741Z,4.53
2023-04-21T15:33:42.915Z,4.93
2023-04-21T15:36:11.078Z,5.20
2023-04-21T15:38:41.023Z,5.07
2023-04-21T15:41:09.237Z,4.17
2023-04-21T15:43:37.582Z,4.87
2023-04-21T15:46:13.502Z,4.63
2023-04-21T15:48:42.377Z,4.47
2023-04-21T15:51:11.153Z,4.63
2023-04-21T15:53:47.559Z,4.93
2023-04-21T15:56:15.992Z,3.83
2023-04-21T15:58:44.452Z,5.00
2023-04-21T16:01:14.961Z,13.00
2023-04-21T16:03:44.475Z,4.03
2023-04-21T16:06:12.762Z,3.17
2023-04-21T16:08:44.836Z,3.77
2023-04-21T16:11:12.925Z,3.53
2023-04-21T16:13:41.066Z,7.50
2023-04-21T16:16:09.427Z,5.00
2023-04-21T16:18:37.493Z,3.80
2023-04-21T16:21:05.951Z,3.57
2023-04-21T16:23:34.071Z,5.07
2023-04-21T16:26:05.983Z,3.50
2023-04-21T16:28:34.057Z,3.33
2023-04-21T16:31:02.096Z,2.77
2023-04-21T16:33:30.040Z,3.63
2023-04-21T16:35:58.250Z,3.10
2023-04-21T16:38:26.898Z,6.87
2023-04-21T16:40:54.863Z,2.80
2023-04-21T16:43:24.564Z,5.70
2023-04-21T16:45:52.764Z,3.70
2023-04-21T16:48:20.818Z,3.23
2023-04-21T16:50:48.964Z,3.63
2023-04-21T16:53:18.491Z,4.20
2023-04-21T16:55:46.530Z,3.93
2023-04-21T16:58:14.473Z,4.50
2023-04-21T17:00:44.049Z,4.63
2023-04-21T17:03:12.203Z,4.13
2023-04-21T17:05:40.353Z,4.00
2023-04-21T17:08:08.423Z,3.77
2023-04-21T17:10:36.556Z,4.07
2023-04-21T17:13:06.342Z,3.77
2023-04-21T17:15:34.504Z,4.87
2023-04-21T17:18:03.986Z,5.10
2023-04-21T17:20:32.107Z,4.63
2023-04-21T17:23:00.069Z,5.63
2023-04-21T17:25:28.255Z,5.23
2023-04-21T17:27:56.925Z,7.63
2023-04-21T17:30:25.014Z,5.23
2023-04-21T17:33:04.173Z,6.60
2023-04-21T17:35:41.616Z,6.63
2023-04-21T17:38:18.056Z,7.50
2023-04-21T17:40:46.164Z,5.67
2023-04-21T17:43:14.342Z,5.37
2023-04-21T17:45:43.385Z,7.43
2023-04-21T17:48:11.532Z,5.40
2023-04-21T17:50:40.959Z,5.93
2023-04-21T17:53:09.087Z,5.80
2023-04-21T17:55:37.137Z,4.40
2023-04-21T17:58:05.032Z,5.93
2023-04-21T18:00:34.548Z,7.33
2023-04-21T18:03:03.304Z,5.03
2023-04-21T18:05:31.484Z,4.63
2023-04-21T18:08:02.260Z,4.60
2023-04-21T18:10:30.802Z,6.27
2023-04-21T18:12:59.525Z,7.57
2023-04-21T18:15:27.518Z,6.70
2023-04-21T18:17:55.693Z,9.17
2023-04-21T18:20:23.714Z,8.03
2023-04-21T18:22:52.295Z,16.10
2023-04-21T18:25:40.839Z,16.10
2023-04-21T18:28:14.202Z,10.97
2023-04-21T18:30:42.432Z,12.37
2023-04-21T18:33:11.775Z,14.90
2023-04-21T18:35:40.258Z,12.97
2023-04-21T18:38:10.593Z,12.90
2023-04-21T18:40:40.922Z,11.53
2023-04-21T18:43:10.018Z,11.77
2023-04-21T18:45:38.789Z,10.00
2023-04-21T18:48:08.736Z,9.87
2023-04-21T18:50:40.321Z,10.73
2023-04-21T18:53:09.349Z,9.30
2023-04-21T18:55:39.209Z,8.03
2023-04-21T18:58:07.725Z,6.03
2023-04-21T19:00:39.336Z,7.53
2023-04-21T19:03:09.702Z,5.90
2023-04-21T19:05:40.619Z,10.63
2023-04-21T19:08:10.999Z,7.03
2023-04-21T19:10:40.752Z,7.37
2023-04-21T19:13:09.035Z,8.37
2023-04-21T19:15:37.434Z,7.63
2023-04-21T19:18:06.773Z,8.83
2023-04-21T19:20:37.546Z,6.63
2023-04-21T19:23:05.866Z,8.67
2023-04-21T19:25:37.007Z,11.17
2023-04-21T19:28:07.946Z,7.80
2023-04-21T19:30:35.880Z,12.93
2023-04-21T19:33:05.497Z,7.47
2023-04-21T19:35:33.787Z,6.90
2023-04-21T19:38:02.286Z,6.00
2023-04-21T19:40:31.035Z,8.83
2023-04-21T19:42:59.840Z,9.50
2023-04-21T19:45:29.184Z,8.93
2023-04-21T19:47:57.348Z,11.20
2023-04-21T19:50:25.682Z,8.43
2023-04-21T19:52:53.501Z,9.00
2023-04-21T19:55:21.542Z,6.90
2023-04-21T19:57:49.839Z,6.33
2023-04-21T20:00:18.326Z,6.40
2023-04-21T20:02:47.808Z,7.87
2023-04-21T20:05:16.013Z,6.17
2023-04-21T20:07:44.503Z,6.20
2023-04-21T20:10:13.827Z,9.57
2023-04-21T20:12:41.962Z,8.00
2023-04-21T20:15:11.965Z,8.83
2023-04-21T20:17:40.130Z,8.57
2023-04-21T20:20:11.171Z,6.60
2023-04-21T20:22:39.540Z,9.63
2023-04-21T20:25:08.410Z,8.73
2023-04-21T20:27:36.573Z,6.20
2023-04-21T20:30:05.364Z,7.93
2023-04-21T20:32:33.902Z,6.80
2023-04-21T20:35:02.338Z,9.10
2023-04-21T20:37:33.604Z,7.57
2023-04-21T20:40:04.569Z,7.97
2023-04-21T20:42:33.421Z,6.43
2023-04-21T20:45:02.341Z,5.90
2023-04-21T20:47:30.539Z,8.00
2023-04-21T20:49:59.194Z,5.97
2023-04-21T20:52:27.309Z,7.87
2023-04-21T20:54:56.834Z,9.07
2023-04-21T20:57:27.041Z,6.23
2023-04-21T20:59:55.318Z,6.97
2023-04-21T21:02:23.617Z,8.57
2023-04-21T21:04:51.905Z,7.73
2023-04-21T21:07:19.990Z,9.33
2023-04-21T21:09:48.055Z,9.87
2023-04-21T21:12:17.555Z,10.77
2023-04-21T21:14:45.508Z,8.43
2023-04-21T21:17:16.548Z,8.73
2023-04-21T21:19:44.620Z,6.10
2023-04-21T21:22:12.776Z,6.40
2023-04-21T21:24:41.015Z,6.03
2023-04-21T21:27:09.286Z,6.20
2023-04-21T21:29:38.807Z,6.50
2023-04-21T21:32:07.271Z,6.30
2023-04-21T21:34:35.342Z,7.97
2023-04-21T21:37:05.086Z,5.40
2023-04-21T21:39:33.662Z,7.80
2023-04-21T21:42:02.444Z,11.70
2023-04-21T21:44:30.320Z,9.97
2023-04-21T21:46:59.940Z,7.50
2023-04-21T21:49:27.863Z,11.00
2023-04-21T21:51:55.998Z,8.73
2023-04-21T21:54:24.168Z,7.23
2023-04-21T21:56:52.305Z,8.57
2023-04-21T21:59:20.817Z,9.80
2023-04-21T22:01:49.892Z,9.83
2023-04-21T22:04:19.227Z,7.93
2023-04-21T22:06:47.333Z,7.40
2023-04-21T22:09:15.578Z,8.60
2023-04-21T22:11:44.873Z,9.23
2023-04-21T22:14:22.778Z,7.00
2023-04-21T22:16:53.214Z,7.53
2023-04-21T22:19:22.883Z,8.73
2023-04-21T22:21:50.931Z,6.77
2023-04-21T22:24:19.485Z,7.60
2023-04-21T22:26:48.556Z,9.67
2023-04-21T22:29:16.648Z,10.83
2023-04-21T22:31:45.202Z,7.60
2023-04-21T22:34:15.207Z,10.97
2023-04-21T22:36:48.006Z,9.50
2023-04-21T22:39:15.939Z,14.03
2023-04-21T22:41:44.235Z,11.17
2023-04-21T22:44:12.418Z,8.50
2023-04-21T22:46:41.226Z,8.73
2023-04-21T22:49:09.679Z,9.20
2023-04-21T22:51:38.242Z,8.83
2023-04-21T22:54:07.869Z,8.17
2023-04-21T22:56:35.941Z,11.10
2023-04-21T22:59:04.157Z,8.53
2023-04-21T23:01:32.501Z,8.53
2023-04-21T23:04:00.840Z,6.93
2023-04-21T23:06:29.109Z,8.50
2023-04-21T23:08:57.427Z,8.80
2023-04-21T23:11:26.924Z,9.97
2023-04-21T23:13:56.268Z,12.23
2023-04-21T23:16:24.540Z,8.83
2023-04-21T23:18:52.730Z,10.20
2023-04-21T23:21:21.111Z,9.00
2023-04-21T23:23:50.421Z,9.63
2023-04-21T23:26:18.410Z,9.47
2023-04-21T23:28:48.155Z,9.70
2023-04-21T23:31:16.252Z,8.40
2023-04-21T23:33:44.557Z,6.97
2023-04-21T23:36:12.512Z,6.70
2023-04-21T23:38:40.770Z,6.87
2023-04-21T23:41:08.702Z,7.67
2023-04-21T23:43:37.298Z,6.80
2023-04-21T23:46:07.944Z,8.60
2023-04-21T23:48:36.100Z,6.90
2023-04-21T23:51:04.181Z,6.90
2023-04-21T23:53:32.255Z,7.17
2023-04-21T23:56:00.725Z,7.87
2023-04-21T23:58:28.745Z,6.70
